createdAt,value
2019-06-07T00:00:39.372Z,5.50
2019-06-07T00:03:35.300Z,6.00
2019-06-07T00:06:23.775Z,6.10
2019-06-07T00:09:01.444Z,5.60
2019-06-07T00:11:43.746Z,5.37
2019-06-07T00:14:25.636Z,6.00
2019-06-07T00:17:07.909Z,6.00
2019-06-07T00:23:20.677Z,5.73
2019-06-07T00:26:00.794Z,5.53
2019-06-07T00:28:42.709Z,6.17
2019-06-07T00:31:24.864Z,7.13
2019-06-07T00:37:32.938Z,7.33
2019-06-07T00:40:20.926Z,7.10
2019-06-07T00:42:58.397Z,6.57
2019-06-07T00:45:28.667Z,7.30
2019-06-07T00:48:27.438Z,7.97
2019-06-07T00:51:49.188Z,7.60
2019-06-07T00:54:38.917Z,7.87
2019-06-07T00:57:28.273Z,8.27
2019-06-07T01:00:37.046Z,7.93
2019-06-07T01:03:26.417Z,7.87
2019-06-07T01:06:17.464Z,7.77
2019-06-07T01:09:26.266Z,8.83
2019-06-07T01:12:19.402Z,8.13
2019-06-07T01:15:29.094Z,8.63
2019-06-07T01:18:38.336Z,7.70
2019-06-07T01:21:29.501Z,8.43
2019-06-07T01:24:38.470Z,8.40
2019-06-07T01:27:28.726Z,7.70
2019-06-07T01:30:30.458Z,7.57
2019-06-07T01:33:12.702Z,8.10
2019-06-07T01:35:54.617Z,8.03
2019-06-07T01:38:36.750Z,8.30
2019-06-07T01:41:22.066Z,8.10
2019-06-07T01:44:02.798Z,7.97
2019-06-07T01:46:44.721Z,7.50
2019-06-07T01:49:29.481Z,7.20
2019-06-07T01:52:10.294Z,6.83
2019-06-07T01:54:58.713Z,7.90
2019-06-07T01:57:47.485Z,8.70
2019-06-07T02:00:22.130Z,8.27
2019-06-07T02:03:04.298Z,8.20
2019-06-07T02:05:46.583Z,8.33
2019-06-07T02:08:16.858Z,8.17
2019-06-07T02:11:06.196Z,8.40
2019-06-07T02:13:55.566Z,8.53
2019-06-07T02:16:44.026Z,8.27
2019-06-07T02:19:27.442Z,8.37
2019-06-07T02:22:09.663Z,8.67
2019-06-07T02:25:27.693Z,8.53
2019-06-07T02:27:35.922Z,8.90
2019-06-07T02:30:58.845Z,8.37
2019-06-07T02:33:56.368Z,7.90
2019-06-07T02:36:45.739Z,9.10
2019-06-07T02:39:54.573Z,8.50
2019-06-07T02:42:26.119Z,7.43
2019-06-07T02:45:42.202Z,8.10
2019-06-07T02:51:38.939Z,8.10
2019-06-07T02:54:39.644Z,8.63
2019-06-07T02:57:19.349Z,7.53
2019-06-07T03:00:06.787Z,8.20
2019-06-07T03:02:58.344Z,8.13
2019-06-07T03:05:47.900Z,7.90
2019-06-07T03:08:38.281Z,7.73
2019-06-07T03:12:08.733Z,7.83
2019-06-07T03:14:58.210Z,8.20
2019-06-07T03:18:07.983Z,7.77
2019-06-07T03:23:47.173Z,8.10
2019-06-07T03:29:11.383Z,7.93
2019-06-07T03:31:47.708Z,8.50
2019-06-07T03:34:52.118Z,8.13
2019-06-07T03:38:00.914Z,9.23
2019-06-07T03:40:50.290Z,8.70
2019-06-07T03:43:20.621Z,7.80
2019-06-07T03:46:30.126Z,8.70
2019-06-07T03:49:42.481Z,8.43
2019-06-07T03:52:35.042Z,8.03
2019-06-07T03:55:41.453Z,8.00
2019-06-07T03:58:49.479Z,8.07
2019-06-07T04:01:29.029Z,8.43
2019-06-07T04:04:12.607Z,7.63
2019-06-07T04:06:54.286Z,8.80
2019-06-07T04:09:40.147Z,8.63
2019-06-07T04:12:20.365Z,9.13
2019-06-07T04:15:02.811Z,8.97
2019-06-07T04:18:00.919Z,9.53
2019-06-07T04:20:29.363Z,9.53
2019-06-07T04:29:32.440Z,9.23
2019-06-07T04:31:44.737Z,8.80
2019-06-07T04:34:27.469Z,9.70
2019-06-07T04:37:09.619Z,9.23
2019-06-07T04:40:19.417Z,8.90
2019-06-07T04:46:43.045Z,9.37
2019-06-07T04:49:52.974Z,9.20
2019-06-07T04:52:23.344Z,9.87
2019-06-07T04:54:53.564Z,8.90
2019-06-07T05:01:03.905Z,8.60
2019-06-07T05:04:13.502Z,10.03
2019-06-07T05:07:02.856Z,9.00
2019-06-07T05:09:52.196Z,9.50
2019-06-07T05:12:44.321Z,9.20
2019-06-07T05:15:34.578Z,9.47
2019-06-07T05:18:24.947Z,9.63
2019-06-07T05:21:14.345Z,9.17
2019-06-07T05:24:09.602Z,8.53
2019-06-07T05:27:14.180Z,8.17
2019-06-07T05:30:23.800Z,7.70
2019-06-07T05:33:14.190Z,7.43
2019-06-07T05:35:56.634Z,7.97
2019-06-07T05:38:40.678Z,10.67
2019-06-07T05:41:22.417Z,7.93
2019-06-07T05:44:12.772Z,7.83
2019-06-07T05:46:48.802Z,8.20
2019-06-07T05:49:19.047Z,7.47
2019-06-07T05:51:49.338Z,7.87
2019-06-07T05:54:40.530Z,7.50
2019-06-07T05:57:51.193Z,7.30
2019-06-07T06:01:40.814Z,8.83
2019-06-07T06:04:10.414Z,7.87
2019-06-07T06:06:59.830Z,7.63
2019-06-07T06:09:49.231Z,7.27
2019-06-07T06:12:44.788Z,7.20
2019-06-07T06:15:42.338Z,7.67
2019-06-07T06:18:41.299Z,8.57
2019-06-07T06:21:50.925Z,8.50
2019-06-07T06:24:48.881Z,7.33
2019-06-07T06:28:10.516Z,7.13
2019-06-07T06:31:01.337Z,7.20
2019-06-07T06:33:50.767Z,7.07
2019-06-07T06:36:43.865Z,6.97
2019-06-07T06:39:50.714Z,6.53
2019-06-07T06:42:59.522Z,6.70
2019-06-07T06:45:42.873Z,6.57
2019-06-07T06:50:55.749Z,5.70
2019-06-07T06:53:26.181Z,5.00
2019-06-07T06:56:15.593Z,5.87
2019-06-07T07:02:15.554Z,4.30
2019-06-07T07:05:24.394Z,3.67
2019-06-07T07:08:13.753Z,3.98
2019-06-07T07:11:03.173Z,3.72
2019-06-07T07:14:12.065Z,3.20
2019-06-07T07:17:01.449Z,4.17
2019-06-07T07:19:53.056Z,3.50
2019-06-07T07:23:01.290Z,5.22
2019-06-07T07:29:04.793Z,3.73
2019-06-07T07:31:56.274Z,3.97
2019-06-07T07:35:04.678Z,3.60
2019-06-07T07:41:26.604Z,4.17
2019-06-07T07:44:09.953Z,3.70
2019-06-07T07:46:53.861Z,3.80
2019-06-07T07:49:35.980Z,3.93
2019-06-07T07:52:18.220Z,4.10
2019-06-07T07:54:59.793Z,4.33
2019-06-07T07:57:42.123Z,3.80
2019-06-07T08:00:50.012Z,3.37
2019-06-07T08:03:07.471Z,3.40
2019-06-07T08:05:52.041Z,3.37
2019-06-07T08:08:33.786Z,3.57
2019-06-07T08:11:15.380Z,4.00
2019-06-07T08:13:58.831Z,10.17
2019-06-07T08:16:41.056Z,7.23
2019-06-07T08:19:22.738Z,6.27
2019-06-07T08:22:04.558Z,3.90
2019-06-07T08:24:50.038Z,3.17
2019-06-07T08:31:09.997Z,3.20
2019-06-07T08:33:52.786Z,3.10
2019-06-07T08:36:42.041Z,3.20
2019-06-07T08:39:18.856Z,3.30
2019-06-07T08:42:14.783Z,2.60
2019-06-07T08:44:43.517Z,3.20
2019-06-07T08:47:25.000Z,2.80
2019-06-07T08:50:07.966Z,2.93
2019-06-07T08:52:54.740Z,2.70
2019-06-07T08:55:34.667Z,5.00
2019-06-07T08:58:16.569Z,3.77
2019-06-07T09:01:05.822Z,3.40
2019-06-07T09:03:42.744Z,3.70
2019-06-07T09:07:01.746Z,5.17
2019-06-07T09:09:07.830Z,2.50
2019-06-07T09:11:50.009Z,2.67
2019-06-07T09:14:32.530Z,4.87
2019-06-07T09:17:14.782Z,3.07
2019-06-07T09:19:58.928Z,3.93
2019-06-07T09:22:40.604Z,3.70
2019-06-07T09:25:22.411Z,2.60
2019-06-07T09:28:14.388Z,2.87
2019-06-07T09:30:48.313Z,2.70
2019-06-07T09:36:13.698Z,3.17
2019-06-07T09:42:23.345Z,3.10
2019-06-07T09:49:01.450Z,3.17
2019-06-07T09:51:31.606Z,3.80
2019-06-07T09:55:03.007Z,3.37
2019-06-07T09:57:31.496Z,3.77
2019-06-07T10:00:39.971Z,3.50
2019-06-07T10:03:31.672Z,3.92
2019-06-07T10:06:21.097Z,2.93
2019-06-07T10:12:21.009Z,3.80
2019-06-07T10:15:10.354Z,4.20
2019-06-07T10:18:00.724Z,3.50
2019-06-07T10:21:14.828Z,3.65
2019-06-07T10:24:01.681Z,3.00
2019-06-07T10:26:51.124Z,3.10
2019-06-07T10:29:32.830Z,3.47
2019-06-07T10:32:14.929Z,2.90
2019-06-07T10:34:57.314Z,2.90
2019-06-07T10:37:39.545Z,3.55
2019-06-07T10:40:21.491Z,3.37
2019-06-07T10:43:04.947Z,4.50
2019-06-07T10:45:47.061Z,2.90
2019-06-07T10:48:29.084Z,3.25
2019-06-07T10:51:14.387Z,3.10
2019-06-07T10:53:55.317Z,4.55
2019-06-07T10:56:37.387Z,3.20
2019-06-07T10:59:19.280Z,3.83
2019-06-07T11:02:00.994Z,3.77
2019-06-07T11:04:42.795Z,5.60
2019-06-07T11:07:25.106Z,2.87
2019-06-07T11:10:13.361Z,2.80
2019-06-07T11:12:50.424Z,3.10
2019-06-07T11:15:32.530Z,3.77
2019-06-07T11:18:14.906Z,3.77
2019-06-07T11:24:24.767Z,3.42
2019-06-07T11:27:07.243Z,2.70
2019-06-07T11:29:49.181Z,3.15
2019-06-07T11:32:31.340Z,4.20
2019-06-07T11:35:13.991Z,4.35
2019-06-07T11:37:57.105Z,5.25
2019-06-07T11:44:18.705Z,3.92
2019-06-07T11:47:01.032Z,3.47
2019-06-07T11:49:43.099Z,4.10
2019-06-07T11:52:25.074Z,3.20
2019-06-07T11:55:06.685Z,2.98
2019-06-07T11:57:49.061Z,5.00
2019-06-07T12:00:34.017Z,3.58
2019-06-07T12:03:15.741Z,3.95
2019-06-07T12:05:58.128Z,3.15
2019-06-07T12:08:40.359Z,3.10
2019-06-07T12:11:22.419Z,3.83
2019-06-07T12:14:04.198Z,3.70
2019-06-07T12:16:46.161Z,3.70
2019-06-07T12:19:28.230Z,3.95
2019-06-07T12:21:58.543Z,3.55
2019-06-07T12:24:47.832Z,3.20
2019-06-07T12:27:37.190Z,3.25
2019-06-07T12:30:26.069Z,3.60
2019-06-07T12:33:03.195Z,3.70
2019-06-07T12:35:45.070Z,3.45
2019-06-07T12:44:45.273Z,3.60
2019-06-07T12:47:27.803Z,4.30
2019-06-07T12:50:10.040Z,4.15
2019-06-07T12:52:52.079Z,5.40
2019-06-07T12:55:33.626Z,3.40
2019-06-07T13:01:24.889Z,4.65
2019-06-07T13:04:06.831Z,3.40
2019-06-07T13:06:48.669Z,3.45
2019-06-07T13:09:30.486Z,3.25
2019-06-07T13:12:12.829Z,3.42
2019-06-07T13:14:54.747Z,5.28
2019-06-07T13:17:37.194Z,3.40
2019-06-07T13:20:20.299Z,3.50
2019-06-07T13:23:02.859Z,3.27
2019-06-07T13:25:46.714Z,3.77
2019-06-07T13:28:28.956Z,3.62
2019-06-07T13:31:11.081Z,3.67
2019-06-07T13:33:52.763Z,3.20
2019-06-07T13:36:35.148Z,3.10
2019-06-07T13:42:25.326Z,3.10
2019-06-07T13:45:07.417Z,3.25
2019-06-07T13:47:49.365Z,2.70
2019-06-07T13:50:31.349Z,3.05
2019-06-07T13:53:13.415Z,2.83
2019-06-07T13:55:55.931Z,3.00
2019-06-07T13:58:37.841Z,3.72
2019-06-07T14:01:20.330Z,3.10
2019-06-07T14:04:02.656Z,4.40
2019-06-07T14:06:44.898Z,3.20
2019-06-07T14:09:27.589Z,3.33
2019-06-07T14:15:35.506Z,2.80
2019-06-07T14:18:17.412Z,2.60
2019-06-07T14:20:59.365Z,2.90
2019-06-07T14:27:14.725Z,3.52
2019-06-07T14:29:56.466Z,3.92
2019-06-07T14:32:26.680Z,3.80
2019-06-07T14:35:16.269Z,2.87
2019-06-07T14:38:25.350Z,3.20
2019-06-07T14:41:14.715Z,2.98
2019-06-07T14:44:04.179Z,11.73
2019-06-07T14:46:53.577Z,4.20
2019-06-07T14:52:54.402Z,2.70
2019-06-07T14:56:03.189Z,5.05
2019-06-07T14:58:52.567Z,4.70
2019-06-07T15:02:01.385Z,3.20
2019-06-07T15:04:50.867Z,2.77
2019-06-07T15:07:40.832Z,2.60
2019-06-07T15:10:50.917Z,3.27
2019-06-07T15:13:40.350Z,2.37
2019-06-07T15:16:22.608Z,2.40
2019-06-07T15:19:04.515Z,2.75
2019-06-07T15:21:46.722Z,2.52
2019-06-07T15:24:33.540Z,2.52
2019-06-07T15:27:14.731Z,2.83
2019-06-07T15:32:46.166Z,2.52
2019-06-07T15:35:28.163Z,2.80
2019-06-07T15:41:43.006Z,3.05
2019-06-07T15:44:24.966Z,2.60
2019-06-07T15:47:07.082Z,2.47
2019-06-07T15:49:49.216Z,2.40
2019-06-07T15:52:31.566Z,2.47
2019-06-07T15:55:14.038Z,3.02
2019-06-07T15:57:55.961Z,2.42
2019-06-07T16:00:40.580Z,2.15
2019-06-07T16:03:21.970Z,3.02
2019-06-07T16:06:04.042Z,2.72
2019-06-07T16:08:45.628Z,2.58
2019-06-07T16:11:27.312Z,2.75
2019-06-07T16:14:08.899Z,3.17
2019-06-07T16:16:51.296Z,2.85
2019-06-07T16:19:35.300Z,2.87
2019-06-07T16:22:16.253Z,2.90
2019-06-07T16:24:58.326Z,4.30
2019-06-07T16:27:40.708Z,16.48
2019-06-07T16:30:21.493Z,3.40
2019-06-07T16:33:10.990Z,14.78
2019-06-07T16:36:00.362Z,4.30
2019-06-07T16:38:42.365Z,3.98
2019-06-07T16:41:24.492Z,3.37
2019-06-07T16:44:06.873Z,3.45
2019-06-07T16:47:08.054Z,3.20
2019-06-07T16:49:49.863Z,3.47
2019-06-07T16:52:31.596Z,3.55
2019-06-07T16:58:34.482Z,3.47
2019-06-07T17:01:16.780Z,3.40
2019-06-07T17:03:58.890Z,3.47
2019-06-07T17:06:41.702Z,2.87
2019-06-07T17:09:24.129Z,2.80
2019-06-07T17:12:06.053Z,3.17
2019-06-07T17:14:48.700Z,2.22
2019-06-07T17:17:31.010Z,2.60
2019-06-07T17:20:13.336Z,2.40
2019-06-07T17:22:57.373Z,2.12
2019-06-07T17:25:39.545Z,2.20
2019-06-07T17:28:21.527Z,1.92
2019-06-07T17:31:03.192Z,1.85
2019-06-07T17:33:33.468Z,2.63
2019-06-07T17:36:22.900Z,2.33
2019-06-07T17:39:12.376Z,2.42
2019-06-07T17:42:02.746Z,1.73
2019-06-07T17:45:12.530Z,2.10
2019-06-07T17:48:02.014Z,2.17
2019-06-07T17:50:52.798Z,1.60
2019-06-07T17:54:02.086Z,1.50
2019-06-07T17:56:53.238Z,1.70
2019-06-07T17:59:55.018Z,1.60
2019-06-07T18:02:37.003Z,1.40
2019-06-07T18:05:19.286Z,1.30
2019-06-07T18:08:01.734Z,1.10
2019-06-07T18:10:43.980Z,1.37
2019-06-07T18:13:26.251Z,1.20
2019-06-07T18:16:08.067Z,1.10
2019-06-07T18:18:50.665Z,1.33
2019-06-07T18:21:32.902Z,1.10
2019-06-07T18:24:15.410Z,1.20
2019-06-07T18:26:58.903Z,1.07
2019-06-07T18:29:40.707Z,1.00
2019-06-07T18:32:23.073Z,1.10
2019-06-07T18:35:05.351Z,1.10
2019-06-07T18:37:47.318Z,0.90
2019-06-07T18:40:29.611Z,1.00
2019-06-07T18:43:11.584Z,0.90
2019-06-07T18:45:53.637Z,1.10
2019-06-07T18:48:35.805Z,0.90
2019-06-07T18:51:18.090Z,0.93
2019-06-07T18:54:00.190Z,1.00
2019-06-07T18:56:41.969Z,1.10
2019-06-07T19:02:33.217Z,0.63
2019-06-07T19:08:55.518Z,0.63
2019-06-07T19:11:38.937Z,0.67
2019-06-07T19:14:19.443Z,0.87
2019-06-07T19:17:08.283Z,0.80
2019-06-07T19:19:58.300Z,0.87
2019-06-07T19:23:08.224Z,0.63
2019-06-07T19:25:58.528Z,0.60
2019-06-07T19:29:08.137Z,0.73
2019-06-07T19:31:58.853Z,0.83
2019-06-07T19:35:08.579Z,1.00
2019-06-07T19:38:18.979Z,0.90
2019-06-07T19:41:19.166Z,0.97
2019-06-07T19:44:18.838Z,0.80
2019-06-07T19:47:27.646Z,1.00
2019-06-07T19:50:17.087Z,0.97
2019-06-07T19:56:37.594Z,0.80
2019-06-07T19:59:26.987Z,0.67
2019-06-07T20:02:38.831Z,0.80
2019-06-07T20:05:48.586Z,0.80
2019-06-07T20:08:37.941Z,0.83
2019-06-07T20:11:19.820Z,1.33
2019-06-07T20:14:01.546Z,1.10
2019-06-07T20:16:43.738Z,0.87
2019-06-07T20:19:26.509Z,1.30
2019-06-07T20:22:09.550Z,0.93
2019-06-07T20:24:51.292Z,0.90
2019-06-07T20:27:33.680Z,0.80
2019-06-07T20:30:15.847Z,1.40
2019-06-07T20:32:59.686Z,1.00
2019-06-07T20:35:30.065Z,1.17
2019-06-07T20:38:19.381Z,0.83
2019-06-07T20:45:13.079Z,1.03
2019-06-07T20:48:02.537Z,0.97
2019-06-07T20:50:51.886Z,0.73
2019-06-07T20:53:41.246Z,0.80
2019-06-07T20:56:30.601Z,1.00
2019-06-07T20:59:19.909Z,0.90
2019-06-07T21:02:09.671Z,0.90
2019-06-07T21:05:01.137Z,0.60
2019-06-07T21:08:12.806Z,0.87
2019-06-07T21:11:20.482Z,0.83
2019-06-07T21:14:10.309Z,0.73
2019-06-07T21:17:20.230Z,0.70
2019-06-07T21:20:13.762Z,0.80
2019-06-07T21:23:20.288Z,0.80
2019-06-07T21:26:10.961Z,0.90
2019-06-07T21:29:20.158Z,0.80
2019-06-07T21:32:09.673Z,0.90
2019-06-07T21:34:59.017Z,0.80
2019-06-07T21:37:41.208Z,0.83
2019-06-07T21:40:21.681Z,0.80
2019-06-07T21:43:12.537Z,0.90
2019-06-07T21:46:21.534Z,1.07
2019-06-07T21:49:10.567Z,0.80
2019-06-07T21:51:59.764Z,0.70
2019-06-07T21:54:49.142Z,1.27
2019-06-07T21:57:57.906Z,1.00
2019-06-07T22:04:14.894Z,1.10
2019-06-07T22:07:05.296Z,0.80
2019-06-07T22:10:14.908Z,0.93
2019-06-07T22:12:45.237Z,0.90
2019-06-07T22:15:33.301Z,1.00
2019-06-07T22:18:12.878Z,0.80
2019-06-07T22:20:54.713Z,0.90
2019-06-07T22:30:01.360Z,1.00
2019-06-07T22:32:43.228Z,1.20
2019-06-07T22:35:25.402Z,0.97
2019-06-07T22:38:08.081Z,1.00
2019-06-07T22:40:49.770Z,1.07
2019-06-07T22:43:31.749Z,0.90
2019-06-07T22:46:14.795Z,1.10
2019-06-07T22:48:57.439Z,1.20
2019-06-07T22:51:39.636Z,1.43
2019-06-07T22:54:21.423Z,1.03
2019-06-07T22:57:10.100Z,1.00
2019-06-07T23:00:14.243Z,1.00
2019-06-07T23:02:56.045Z,1.00
2019-06-07T23:05:37.797Z,1.03
2019-06-07T23:08:19.574Z,0.87
2019-06-07T23:11:01.147Z,0.90
2019-06-07T23:13:43.398Z,1.13
2019-06-07T23:16:25.778Z,0.70
2019-06-07T23:19:07.461Z,0.93
2019-06-07T23:21:49.966Z,0.70
2019-06-07T23:24:31.532Z,0.90
2019-06-07T23:27:14.348Z,0.73
2019-06-07T23:29:56.139Z,1.07
2019-06-07T23:32:37.964Z,0.97
2019-06-07T23:35:21.025Z,0.90
2019-06-07T23:47:15.422Z,0.93
2019-06-07T23:49:56.659Z,1.10
2019-06-07T23:56:19.312Z,1.00
